sensor_id;sensor_type;location;lat;lon;timestamp;P1;durP1;ratioP1;P2;durP2;ratioP2
73919;SDS011;62266;53.348;-1.496;2023-08-24T00:30:03;4.30;;;2.80;;
73919;SDS011;62266;53.348;-1.496;2023-08-24T00:32:50;5.32;;;3.25;;
73919;SDS011;62266;53.348;-1.496;2023-08-24T00:35:34;4.68;;;2.90;;
73919;SDS011;62266;53.348;-1.496;2023-08-24T00:41:02;4.23;;;2.67;;
73919;SDS011;62266;53.348;-1.496;2023-08-24T00:43:46;7.35;;;2.83;;
73919;SDS011;62266;53.348;-1.496;2023-08-24T00:46:30;4.85;;;2.80;;
73919;SDS011;62266;53.348;-1.496;2023-08-24T00:49:14;5.60;;;2.97;;
73919;SDS011;62266;53.348;-1.496;2023-08-24T00:51:58;5.13;;;3.42;;
73919;SDS011;62266;53.348;-1.496;2023-08-24T00:54:42;4.93;;;2.90;;
73919;SDS011;62266;53.348;-1.496;2023-08-24T00:57:27;4.95;;;2.60;;
73919;SDS011;62266;53.348;-1.496;2023-08-24T01:00:11;3.50;;;2.70;;
73919;SDS011;62266;53.348;-1.496;2023-08-24T01:02:57;5.20;;;2.90;;
73919;SDS011;62266;53.348;-1.496;2023-08-24T01:05:41;5.13;;;2.75;;
73919;SDS011;62266;53.348;-1.496;2023-08-24T01:08:25;5.10;;;2.97;;
73919;SDS011;62266;53.348;-1.496;2023-08-24T01:14:35;6.03;;;3.10;;
73919;SDS011;62266;53.348;-1.496;2023-08-24T01:17:42;4.25;;;2.90;;
73919;SDS011;62266;53.348;-1.496;2023-08-24T01:20:27;5.25;;;3.20;;
73919;SDS011;62266;53.348;-1.496;2023-08-24T01:26:29;4.75;;;3.22;;
73919;SDS011;62266;53.348;-1.496;2023-08-24T01:29:13;5.93;;;2.95;;
73919;SDS011;62266;53.348;-1.496;2023-08-24T01:31:59;5.63;;;3.42;;
73919;SDS011;62266;53.348;-1.496;2023-08-24T01:34:42;7.68;;;3.65;;
73919;SDS011;62266;53.348;-1.496;2023-08-24T01:37:26;4.93;;;2.70;;
73919;SDS011;62266;53.348;-1.496;2023-08-24T01:40:20;6.28;;;3.20;;
73919;SDS011;62266;53.348;-1.496;2023-08-24T01:43:07;4.28;;;2.85;;
73919;SDS011;62266;53.348;-1.496;2023-08-24T01:45:53;5.03;;;3.25;;
73919;SDS011;62266;53.348;-1.496;2023-08-24T01:48:39;6.88;;;3.10;;
73919;SDS011;62266;53.348;-1.496;2023-08-24T01:51:24;7.03;;;3.53;;
73919;SDS011;62266;53.348;-1.496;2023-08-24T01:54:08;5.72;;;3.40;;
73919;SDS011;62266;53.348;-1.496;2023-08-24T01:56:53;5.35;;;3.28;;
73919;SDS011;62266;53.348;-1.496;2023-08-24T01:59:37;3.78;;;2.88;;
73919;SDS011;62266;53.348;-1.496;2023-08-24T02:02:21;5.00;;;3.13;;
73919;SDS011;62266;53.348;-1.496;2023-08-24T02:05:05;5.20;;;3.17;;
73919;SDS011;62266;53.348;-1.496;2023-08-24T02:07:50;5.80;;;3.33;;
73919;SDS011;62266;53.348;-1.496;2023-08-24T02:10:34;5.63;;;3.20;;
73919;SDS011;62266;53.348;-1.496;2023-08-24T02:13:18;4.72;;;3.20;;
73919;SDS011;62266;53.348;-1.496;2023-08-24T02:16:05;6.72;;;3.20;;
73919;SDS011;62266;53.348;-1.496;2023-08-24T02:18:51;5.93;;;3.40;;
73919;SDS011;62266;53.348;-1.496;2023-08-24T02:21:36;6.10;;;3.22;;
73919;SDS011;62266;53.348;-1.496;2023-08-24T02:24:20;5.82;;;3.38;;
73919;SDS011;62266;53.348;-1.496;2023-08-24T02:27:04;8.07;;;3.63;;
73919;SDS011;62266;53.348;-1.496;2023-08-24T02:29:48;5.45;;;3.47;;
73919;SDS011;62266;53.348;-1.496;2023-08-24T02:32:32;8.30;;;3.50;;
73919;SDS011;62266;53.348;-1.496;2023-08-24T02:35:16;7.00;;;3.90;;
73919;SDS011;62266;53.348;-1.496;2023-08-24T02:38:02;7.53;;;3.47;;
73919;SDS011;62266;53.348;-1.496;2023-08-24T02:40:46;5.82;;;3.22;;
73919;SDS011;62266;53.348;-1.496;2023-08-24T02:43:31;5.85;;;3.00;;
73919;SDS011;62266;53.348;-1.496;2023-08-24T02:46:15;5.90;;;3.50;;
73919;SDS011;62266;53.348;-1.496;2023-08-24T02:48:59;5.72;;;3.50;;
73919;SDS011;62266;53.348;-1.496;2023-08-24T02:51:43;5.00;;;3.30;;
73919;SDS011;62266;53.348;-1.496;2023-08-24T02:54:27;6.57;;;3.83;;
73919;SDS011;62266;53.348;-1.496;2023-08-24T02:57:12;8.80;;;3.70;;
73919;SDS011;62266;53.348;-1.496;2023-08-24T02:59:56;5.27;;;3.40;;
73919;SDS011;62266;53.348;-1.496;2023-08-24T03:02:40;5.45;;;3.25;;
73919;SDS011;62266;53.348;-1.496;2023-08-24T03:05:24;6.95;;;4.18;;
73919;SDS011;62266;53.348;-1.496;2023-08-24T03:08:08;6.40;;;3.40;;
73919;SDS011;62266;53.348;-1.496;2023-08-24T03:10:52;6.53;;;3.80;;
73919;SDS011;62266;53.348;-1.496;2023-08-24T03:13:37;5.93;;;3.63;;
73919;SDS011;62266;53.348;-1.496;2023-08-24T03:16:24;4.95;;;3.38;;
73919;SDS011;62266;53.348;-1.496;2023-08-24T03:19:08;5.03;;;3.72;;
73919;SDS011;62266;53.348;-1.496;2023-08-24T03:21:52;6.63;;;3.92;;
73919;SDS011;62266;53.348;-1.496;2023-08-24T03:24:37;7.65;;;4.07;;
73919;SDS011;62266;53.348;-1.496;2023-08-24T03:27:21;4.40;;;3.27;;
73919;SDS011;62266;53.348;-1.496;2023-08-24T03:30:06;5.80;;;3.60;;
73919;SDS011;62266;53.348;-1.496;2023-08-24T03:32:51;6.45;;;3.80;;
73919;SDS011;62266;53.348;-1.496;2023-08-24T03:35:35;4.72;;;3.47;;
73919;SDS011;62266;53.348;-1.496;2023-08-24T03:38:19;10.02;;;3.92;;
73919;SDS011;62266;53.348;-1.496;2023-08-24T03:41:03;5.90;;;3.57;;
73919;SDS011;62266;53.348;-1.496;2023-08-24T03:43:48;6.32;;;3.90;;
73919;SDS011;62266;53.348;-1.496;2023-08-24T03:46:31;7.43;;;4.25;;
73919;SDS011;62266;53.348;-1.496;2023-08-24T03:49:15;6.13;;;4.10;;
73919;SDS011;62266;53.348;-1.496;2023-08-24T03:52:00;8.00;;;4.00;;
73919;SDS011;62266;53.348;-1.496;2023-08-24T03:54:44;6.83;;;4.00;;
73919;SDS011;62266;53.348;-1.496;2023-08-24T03:57:28;6.35;;;3.88;;
73919;SDS011;62266;53.348;-1.496;2023-08-24T04:00:12;6.68;;;3.80;;
73919;SDS011;62266;53.348;-1.496;2023-08-24T04:02:58;5.50;;;3.53;;
73919;SDS011;62266;53.348;-1.496;2023-08-24T04:05:42;7.15;;;4.13;;
73919;SDS011;62266;53.348;-1.496;2023-08-24T04:08:26;5.43;;;3.90;;
73919;SDS011;62266;53.348;-1.496;2023-08-24T04:11:10;5.53;;;3.72;;
73919;SDS011;62266;53.348;-1.496;2023-08-24T04:13:53;6.70;;;3.58;;
73919;SDS011;62266;53.348;-1.496;2023-08-24T04:16:38;5.45;;;3.60;;
73919;SDS011;62266;53.348;-1.496;2023-08-24T04:19:22;5.63;;;3.72;;
73919;SDS011;62266;53.348;-1.496;2023-08-24T04:22:06;4.93;;;3.23;;
73919;SDS011;62266;53.348;-1.496;2023-08-24T04:24:50;4.80;;;3.30;;
73919;SDS011;62266;53.348;-1.496;2023-08-24T04:27:34;4.90;;;3.25;;
73919;SDS011;62266;53.348;-1.496;2023-08-24T04:30:19;4.07;;;3.42;;
73919;SDS011;62266;53.348;-1.496;2023-08-24T04:33:03;6.78;;;3.45;;
73919;SDS011;62266;53.348;-1.496;2023-08-24T04:35:47;5.53;;;3.33;;
73919;SDS011;62266;53.348;-1.496;2023-08-24T04:38:34;5.47;;;3.20;;
73919;SDS011;62266;53.348;-1.496;2023-08-24T04:41:18;6.05;;;3.25;;
73919;SDS011;62266;53.348;-1.496;2023-08-24T04:44:02;5.05;;;3.00;;
73919;SDS011;62266;53.348;-1.496;2023-08-24T04:46:47;4.03;;;2.60;;
73919;SDS011;62266;53.348;-1.496;2023-08-24T04:49:30;5.90;;;2.43;;
73919;SDS011;62266;53.348;-1.496;2023-08-24T04:52:14;4.05;;;2.65;;
73919;SDS011;62266;53.348;-1.496;2023-08-24T04:54:58;5.00;;;2.83;;
73919;SDS011;62266;53.348;-1.496;2023-08-24T04:57:42;4.25;;;2.38;;
73919;SDS011;62266;53.348;-1.496;2023-08-24T05:00:26;6.82;;;2.70;;
73919;SDS011;62266;53.348;-1.496;2023-08-24T05:03:10;3.80;;;2.67;;
73919;SDS011;62266;53.348;-1.496;2023-08-24T05:05:55;6.68;;;2.50;;
73919;SDS011;62266;53.348;-1.496;2023-08-24T05:08:38;3.60;;;2.60;;
73919;SDS011;62266;53.348;-1.496;2023-08-24T05:11:23;3.80;;;2.20;;
73919;SDS011;62266;53.348;-1.496;2023-08-24T05:14:09;3.25;;;2.25;;
73919;SDS011;62266;53.348;-1.496;2023-08-24T05:16:53;2.90;;;2.20;;
73919;SDS011;62266;53.348;-1.496;2023-08-24T05:19:38;3.65;;;2.05;;
73919;SDS011;62266;53.348;-1.496;2023-08-24T05:22:22;3.70;;;2.10;;
73919;SDS011;62266;53.348;-1.496;2023-08-24T05:25:06;2.70;;;2.17;;
73919;SDS011;62266;53.348;-1.496;2023-08-24T05:27:50;4.70;;;2.20;;
73919;SDS011;62266;53.348;-1.496;2023-08-24T05:30:35;4.13;;;2.07;;
73919;SDS011;62266;53.348;-1.496;2023-08-24T05:33:19;2.60;;;1.70;;
73919;SDS011;62266;53.348;-1.496;2023-08-24T05:36:04;2.75;;;1.70;;
73919;SDS011;62266;53.348;-1.496;2023-08-24T05:38:48;3.15;;;1.58;;
73919;SDS011;62266;53.348;-1.496;2023-08-24T05:41:32;2.72;;;2.10;;
73919;SDS011;62266;53.348;-1.496;2023-08-24T05:44:18;3.07;;;1.77;;
73919;SDS011;62266;53.348;-1.496;2023-08-24T05:47:02;4.32;;;1.30;;
73919;SDS011;62266;53.348;-1.496;2023-08-24T05:49:46;2.13;;;1.55;;
73919;SDS011;62266;53.348;-1.496;2023-08-24T05:52:30;1.80;;;1.30;;
73919;SDS011;62266;53.348;-1.496;2023-08-24T05:55:14;2.55;;;1.40;;
73919;SDS011;62266;53.348;-1.496;2023-08-24T05:57:59;2.13;;;1.50;;
73919;SDS011;62266;53.348;-1.496;2023-08-24T06:00:46;5.68;;;1.88;;
73919;SDS011;62266;53.348;-1.496;2023-08-24T06:03:30;4.50;;;1.80;;
73919;SDS011;62266;53.348;-1.496;2023-08-24T06:06:14;2.92;;;1.60;;
73919;SDS011;62266;53.348;-1.496;2023-08-24T06:08:58;2.65;;;1.55;;
73919;SDS011;62266;53.348;-1.496;2023-08-24T06:11:42;2.00;;;1.43;;
73919;SDS011;62266;53.348;-1.496;2023-08-24T06:14:27;2.13;;;1.30;;
73919;SDS011;62266;53.348;-1.496;2023-08-24T06:17:11;2.20;;;1.30;;
73919;SDS011;62266;53.348;-1.496;2023-08-24T06:19:55;2.42;;;1.30;;
73919;SDS011;62266;53.348;-1.496;2023-08-24T06:22:39;3.17;;;1.52;;
73919;SDS011;62266;53.348;-1.496;2023-08-24T06:25:23;2.17;;;1.53;;
73919;SDS011;62266;53.348;-1.496;2023-08-24T06:28:07;2.38;;;1.40;;
73919;SDS011;62266;53.348;-1.496;2023-08-24T06:30:54;2.47;;;1.50;;
73919;SDS011;62266;53.348;-1.496;2023-08-24T06:33:38;1.80;;;1.48;;
73919;SDS011;62266;53.348;-1.496;2023-08-24T06:36:23;3.17;;;1.60;;
73919;SDS011;62266;53.348;-1.496;2023-08-24T06:39:07;2.60;;;1.53;;
73919;SDS011;62266;53.348;-1.496;2023-08-24T06:41:52;3.47;;;1.60;;
73919;SDS011;62266;53.348;-1.496;2023-08-24T06:44:36;2.05;;;1.55;;
73919;SDS011;62266;53.348;-1.496;2023-08-24T06:47:20;4.57;;;1.45;;
73919;SDS011;62266;53.348;-1.496;2023-08-24T06:50:04;2.55;;;1.25;;
73919;SDS011;62266;53.348;-1.496;2023-08-24T06:52:49;1.73;;;1.10;;
73919;SDS011;62266;53.348;-1.496;2023-08-24T06:55:33;3.15;;;1.40;;
73919;SDS011;62266;53.348;-1.496;2023-08-24T06:58:17;2.85;;;1.35;;
73919;SDS011;62266;53.348;-1.496;2023-08-24T07:01:01;3.35;;;1.45;;
73919;SDS011;62266;53.348;-1.496;2023-08-24T07:03:49;3.58;;;1.40;;
73919;SDS011;62266;53.348;-1.496;2023-08-24T07:06:33;1.83;;;1.40;;
73919;SDS011;62266;53.348;-1.496;2023-08-24T07:09:21;2.83;;;1.52;;
73919;SDS011;62266;53.348;-1.496;2023-08-24T07:12:09;2.53;;;1.20;;
73919;SDS011;62266;53.348;-1.496;2023-08-24T07:14:59;3.13;;;1.40;;
73919;SDS011;62266;53.348;-1.496;2023-08-24T07:17:43;2.63;;;1.55;;
73919;SDS011;62266;53.348;-1.496;2023-08-24T07:20:27;5.10;;;1.70;;
73919;SDS011;62266;53.348;-1.496;2023-08-24T07:23:21;2.00;;;1.33;;
73919;SDS011;62266;53.348;-1.496;2023-08-24T07:26:12;2.15;;;1.20;;
73919;SDS011;62266;53.348;-1.496;2023-08-24T07:28:56;1.77;;;1.20;;
73919;SDS011;62266;53.348;-1.496;2023-08-24T07:31:41;2.72;;;1.60;;
73919;SDS011;62266;53.348;-1.496;2023-08-24T07:34:26;5.77;;;1.50;;
73919;SDS011;62266;53.348;-1.496;2023-08-24T07:37:12;3.33;;;1.20;;
73919;SDS011;62266;53.348;-1.496;2023-08-24T07:39:56;2.72;;;1.30;;
73919;SDS011;62266;53.348;-1.496;2023-08-24T07:42:47;3.33;;;1.20;;
73919;SDS011;62266;53.348;-1.496;2023-08-24T07:45:32;2.35;;;1.25;;
73919;SDS011;62266;53.348;-1.496;2023-08-24T07:48:17;2.23;;;1.50;;
73919;SDS011;62266;53.348;-1.496;2023-08-24T07:51:02;2.83;;;1.30;;
73919;SDS011;62266;53.348;-1.496;2023-08-24T07:53:46;2.05;;;1.23;;
73919;SDS011;62266;53.348;-1.496;2023-08-24T07:56:30;3.03;;;1.52;;
73919;SDS011;62266;53.348;-1.496;2023-08-24T07:59:15;2.80;;;1.33;;
73919;SDS011;62266;53.348;-1.496;2023-08-24T08:01:59;4.43;;;1.30;;
73919;SDS011;62266;53.348;-1.496;2023-08-24T08:04:44;2.63;;;1.20;;
73919;SDS011;62266;53.348;-1.496;2023-08-24T08:07:28;5.15;;;1.13;;
73919;SDS011;62266;53.348;-1.496;2023-08-24T08:10:12;2.08;;;1.10;;
73919;SDS011;62266;53.348;-1.496;2023-08-24T08:12:57;4.70;;;1.48;;
73919;SDS011;62266;53.348;-1.496;2023-08-24T08:15:41;3.27;;;1.20;;
73919;SDS011;62266;53.348;-1.496;2023-08-24T08:18:25;3.40;;;0.98;;
73919;SDS011;62266;53.348;-1.496;2023-08-24T08:21:09;1.45;;;0.82;;
73919;SDS011;62266;53.348;-1.496;2023-08-24T08:23:57;2.00;;;0.90;;
73919;SDS011;62266;53.348;-1.496;2023-08-24T08:26:42;1.50;;;0.63;;
73919;SDS011;62266;53.348;-1.496;2023-08-24T08:29:26;2.60;;;0.80;;
73919;SDS011;62266;53.348;-1.496;2023-08-24T08:32:09;3.00;;;1.02;;
73919;SDS011;62266;53.348;-1.496;2023-08-24T08:34:56;2.80;;;1.00;;
73919;SDS011;62266;53.348;-1.496;2023-08-24T08:37:45;3.65;;;1.08;;
73919;SDS011;62266;53.348;-1.496;2023-08-24T08:40:30;3.33;;;1.40;;
73919;SDS011;62266;53.348;-1.496;2023-08-24T08:43:14;7.10;;;1.10;;
73919;SDS011;62266;53.348;-1.496;2023-08-24T08:45:59;1.10;;;0.90;;
73919;SDS011;62266;53.348;-1.496;2023-08-24T08:48:44;1.52;;;1.00;;
73919;SDS011;62266;53.348;-1.496;2023-08-24T08:51:29;2.50;;;0.90;;
73919;SDS011;62266;53.348;-1.496;2023-08-24T08:54:13;2.05;;;1.00;;
73919;SDS011;62266;53.348;-1.496;2023-08-24T08:56:57;3.63;;;1.20;;
73919;SDS011;62266;53.348;-1.496;2023-08-24T08:59:42;2.17;;;1.40;;
73919;SDS011;62266;53.348;-1.496;2023-08-24T09:02:27;2.58;;;2.30;;
73919;SDS011;62266;53.348;-1.496;2023-08-24T09:05:12;4.03;;;3.20;;
73919;SDS011;62266;53.348;-1.496;2023-08-24T09:07:57;5.97;;;3.83;;
73919;SDS011;62266;53.348;-1.496;2023-08-24T09:10:43;5.00;;;4.07;;
73919;SDS011;62266;53.348;-1.496;2023-08-24T09:13:28;4.68;;;3.63;;
73919;SDS011;62266;53.348;-1.496;2023-08-24T09:16:12;6.88;;;3.00;;
73919;SDS011;62266;53.348;-1.496;2023-08-24T09:19:00;3.83;;;2.42;;
73919;SDS011;62266;53.348;-1.496;2023-08-24T09:21:49;1.48;;;1.00;;
73919;SDS011;62266;53.348;-1.496;2023-08-24T09:24:33;1.50;;;1.07;;
73919;SDS011;62266;53.348;-1.496;2023-08-24T09:27:19;0.73;;;0.60;;
73919;SDS011;62266;53.348;-1.496;2023-08-24T09:30:06;1.65;;;0.90;;
73919;SDS011;62266;53.348;-1.496;2023-08-24T09:32:51;1.05;;;0.80;;
73919;SDS011;62266;53.348;-1.496;2023-08-24T09:35:36;1.10;;;1.00;;
73919;SDS011;62266;53.348;-1.496;2023-08-24T09:38:23;2.90;;;0.90;;
73919;SDS011;62266;53.348;-1.496;2023-08-24T09:41:07;1.48;;;0.95;;
73919;SDS011;62266;53.348;-1.496;2023-08-24T09:43:52;1.48;;;1.00;;
73919;SDS011;62266;53.348;-1.496;2023-08-24T09:46:38;1.58;;;1.10;;
73919;SDS011;62266;53.348;-1.496;2023-08-24T09:49:22;2.38;;;1.10;;
73919;SDS011;62266;53.348;-1.496;2023-08-24T09:52:07;1.67;;;0.80;;
73919;SDS011;62266;53.348;-1.496;2023-08-24T09:54:52;1.88;;;0.80;;
73919;SDS011;62266;53.348;-1.496;2023-08-24T09:57:37;3.38;;;1.20;;
73919;SDS011;62266;53.348;-1.496;2023-08-24T10:00:22;1.17;;;0.75;;
73919;SDS011;62266;53.348;-1.496;2023-08-24T10:03:08;0.93;;;0.65;;
73919;SDS011;62266;53.348;-1.496;2023-08-24T10:05:55;1.50;;;1.00;;
73919;SDS011;62266;53.348;-1.496;2023-08-24T10:08:54;4.00;;;1.52;;
73919;SDS011;62266;53.348;-1.496;2023-08-24T10:11:43;6.32;;;5.60;;
73919;SDS011;62266;53.348;-1.496;2023-08-24T10:17:44;7.18;;;6.57;;
73919;SDS011;62266;53.348;-1.496;2023-08-24T10:20:29;5.93;;;5.43;;
73919;SDS011;62266;53.348;-1.496;2023-08-24T10:23:14;6.63;;;6.03;;
73919;SDS011;62266;53.348;-1.496;2023-08-24T10:25:59;7.32;;;5.75;;
73919;SDS011;62266;53.348;-1.496;2023-08-24T10:28:44;7.43;;;5.50;;
73919;SDS011;62266;53.348;-1.496;2023-08-24T10:31:29;5.72;;;5.22;;
73919;SDS011;62266;53.348;-1.496;2023-08-24T10:34:13;5.43;;;4.93;;
73919;SDS011;62266;53.348;-1.496;2023-08-24T10:37:06;5.30;;;4.80;;
73919;SDS011;62266;53.348;-1.496;2023-08-24T10:39:52;5.00;;;4.50;;
73919;SDS011;62266;53.348;-1.496;2023-08-24T10:42:43;4.75;;;4.35;;
73919;SDS011;62266;53.348;-1.496;2023-08-24T10:45:37;4.63;;;4.22;;
73919;SDS011;62266;53.348;-1.496;2023-08-24T10:51:24;4.28;;;3.25;;
73919;SDS011;62266;53.348;-1.496;2023-08-24T10:54:13;3.75;;;3.20;;
73919;SDS011;62266;53.348;-1.496;2023-08-24T10:56:59;3.60;;;3.17;;
73919;SDS011;62266;53.348;-1.496;2023-08-24T11:02:50;3.60;;;3.30;;
73919;SDS011;62266;53.348;-1.496;2023-08-24T11:05:34;3.85;;;3.15;;
73919;SDS011;62266;53.348;-1.496;2023-08-24T11:08:19;4.07;;;3.60;;
73919;SDS011;62266;53.348;-1.496;2023-08-24T11:11:03;4.38;;;3.85;;
73919;SDS011;62266;53.348;-1.496;2023-08-24T11:17:18;4.97;;;4.10;;
73919;SDS011;62266;53.348;-1.496;2023-08-24T11:20:03;5.70;;;5.10;;
73919;SDS011;62266;53.348;-1.496;2023-08-24T11:22:48;4.18;;;3.78;;
73919;SDS011;62266;53.348;-1.496;2023-08-24T11:25:35;4.43;;;3.70;;
73919;SDS011;62266;53.348;-1.496;2023-08-24T11:28:20;4.32;;;3.92;;
73919;SDS011;62266;53.348;-1.496;2023-08-24T11:31:05;3.47;;;3.17;;
73919;SDS011;62266;53.348;-1.496;2023-08-24T11:33:53;3.90;;;3.50;;
73919;SDS011;62266;53.348;-1.496;2023-08-24T11:36:41;3.33;;;3.03;;
73919;SDS011;62266;53.348;-1.496;2023-08-24T11:39:27;3.88;;;3.40;;
73919;SDS011;62266;53.348;-1.496;2023-08-24T11:42:15;3.70;;;3.05;;
73919;SDS011;62266;53.348;-1.496;2023-08-24T11:44:59;3.70;;;2.70;;
73919;SDS011;62266;53.348;-1.496;2023-08-24T11:47:43;3.25;;;2.03;;
73919;SDS011;62266;53.348;-1.496;2023-08-24T11:50:27;2.97;;;2.22;;
73919;SDS011;62266;53.348;-1.496;2023-08-24T11:53:12;4.70;;;2.40;;
73919;SDS011;62266;53.348;-1.496;2023-08-24T11:55:56;2.80;;;2.00;;
73919;SDS011;62266;53.348;-1.496;2023-08-24T11:58:41;2.70;;;2.37;;
73919;SDS011;62266;53.348;-1.496;2023-08-24T12:01:26;1.85;;;1.70;;
73919;SDS011;62266;53.348;-1.496;2023-08-24T12:04:10;3.45;;;1.98;;
73919;SDS011;62266;53.348;-1.496;2023-08-24T12:06:56;3.17;;;2.88;;
73919;SDS011;62266;53.348;-1.496;2023-08-24T12:09:40;3.08;;;2.88;;
73919;SDS011;62266;53.348;-1.496;2023-08-24T12:12:26;2.60;;;2.30;;
73919;SDS011;62266;53.348;-1.496;2023-08-24T12:15:18;2.20;;;2.00;;
73919;SDS011;62266;53.348;-1.496;2023-08-24T12:18:07;2.17;;;2.08;;
73919;SDS011;62266;53.348;-1.496;2023-08-24T12:20:56;2.40;;;2.13;;
73919;SDS011;62266;53.348;-1.496;2023-08-24T12:23:40;2.92;;;2.63;;
73919;SDS011;62266;53.348;-1.496;2023-08-24T12:26:24;3.97;;;3.67;;
73919;SDS011;62266;53.348;-1.496;2023-08-24T12:29:10;4.10;;;3.80;;
73919;SDS011;62266;53.348;-1.496;2023-08-24T12:31:57;3.92;;;3.63;;
73919;SDS011;62266;53.348;-1.496;2023-08-24T12:34:42;3.97;;;3.67;;
73919;SDS011;62266;53.348;-1.496;2023-08-24T12:37:29;3.65;;;3.10;;
73919;SDS011;62266;53.348;-1.496;2023-08-24T12:40:13;1.03;;;0.77;;
73919;SDS011;62266;53.348;-1.496;2023-08-24T12:42:58;0.80;;;0.50;;
73919;SDS011;62266;53.348;-1.496;2023-08-24T12:45:42;0.30;;;0.22;;
73919;SDS011;62266;53.348;-1.496;2023-08-24T12:48:27;0.98;;;0.30;;
73919;SDS011;62266;53.348;-1.496;2023-08-24T12:51:11;0.55;;;0.40;;
73919;SDS011;62266;53.348;-1.496;2023-08-24T12:53:56;0.60;;;0.60;;
73919;SDS011;62266;53.348;-1.496;2023-08-24T12:56:40;1.85;;;0.80;;
73919;SDS011;62266;53.348;-1.496;2023-08-24T12:59:24;1.23;;;0.80;;
73919;SDS011;62266;53.348;-1.496;2023-08-24T13:02:08;2.72;;;1.10;;
73919;SDS011;62266;53.348;-1.496;2023-08-24T13:04:52;0.82;;;0.82;;
73919;SDS011;62266;53.348;-1.496;2023-08-24T13:07:37;0.90;;;0.73;;
73919;SDS011;62266;53.348;-1.496;2023-08-24T13:10:22;0.90;;;0.70;;
73919;SDS011;62266;53.348;-1.496;2023-08-24T13:13:07;1.05;;;0.70;;
73919;SDS011;62266;53.348;-1.496;2023-08-24T13:15:50;1.30;;;0.60;;
73919;SDS011;62266;53.348;-1.496;2023-08-24T13:18:35;2.45;;;0.57;;
73919;SDS011;62266;53.348;-1.496;2023-08-24T13:21:20;0.57;;;0.40;;
73919;SDS011;62266;53.348;-1.496;2023-08-24T13:24:04;0.77;;;0.60;;
73919;SDS011;62266;53.348;-1.496;2023-08-24T13:26:48;0.85;;;0.40;;
73919;SDS011;62266;53.348;-1.496;2023-08-24T13:29:32;0.95;;;0.40;;
73919;SDS011;62266;53.348;-1.496;2023-08-24T13:32:16;0.73;;;0.40;;
73919;SDS011;62266;53.348;-1.496;2023-08-24T13:35:02;1.50;;;0.43;;
73919;SDS011;62266;53.348;-1.496;2023-08-24T13:37:47;0.82;;;0.50;;
73919;SDS011;62266;53.348;-1.496;2023-08-24T13:40:31;1.58;;;0.80;;
73919;SDS011;62266;53.348;-1.496;2023-08-24T13:43:15;1.80;;;0.80;;
73919;SDS011;62266;53.348;-1.496;2023-08-24T13:46:00;2.30;;;1.10;;
73919;SDS011;62266;53.348;-1.496;2023-08-24T13:48:44;2.73;;;1.17;;
73919;SDS011;62266;53.348;-1.496;2023-08-24T13:51:28;2.20;;;1.48;;
73919;SDS011;62266;53.348;-1.496;2023-08-24T13:54:18;3.45;;;1.95;;
73919;SDS011;62266;53.348;-1.496;2023-08-24T13:57:04;4.25;;;1.40;;
73919;SDS011;62266;53.348;-1.496;2023-08-24T13:59:48;2.65;;;1.70;;
73919;SDS011;62266;53.348;-1.496;2023-08-24T14:02:33;3.50;;;1.77;;
73919;SDS011;62266;53.348;-1.496;2023-08-24T14:05:17;4.30;;;1.50;;
73919;SDS011;62266;53.348;-1.496;2023-08-24T14:08:01;1.50;;;1.30;;
73919;SDS011;62266;53.348;-1.496;2023-08-24T14:10:45;1.80;;;1.10;;
73919;SDS011;62266;53.348;-1.496;2023-08-24T14:13:32;3.85;;;1.55;;
73919;SDS011;62266;53.348;-1.496;2023-08-24T14:16:18;2.30;;;1.50;;
73919;SDS011;62266;53.348;-1.496;2023-08-24T14:19:02;1.98;;;1.30;;
73919;SDS011;62266;53.348;-1.496;2023-08-24T14:21:46;3.08;;;1.20;;
73919;SDS011;62266;53.348;-1.496;2023-08-24T14:24:30;2.95;;;1.20;;
73919;SDS011;62266;53.348;-1.496;2023-08-24T14:27:14;2.58;;;1.10;;
73919;SDS011;62266;53.348;-1.496;2023-08-24T14:29:58;1.57;;;1.10;;
73919;SDS011;62266;53.348;-1.496;2023-08-24T14:32:42;2.88;;;1.80;;
73919;SDS011;62266;53.348;-1.496;2023-08-24T14:35:26;3.28;;;1.77;;
73919;SDS011;62266;53.348;-1.496;2023-08-24T14:38:11;4.15;;;2.00;;
73919;SDS011;62266;53.348;-1.496;2023-08-24T14:40:55;3.00;;;2.17;;
73919;SDS011;62266;53.348;-1.496;2023-08-24T14:43:39;3.73;;;1.63;;
73919;SDS011;62266;53.348;-1.496;2023-08-24T14:46:23;4.05;;;1.90;;
73919;SDS011;62266;53.348;-1.496;2023-08-24T14:49:07;3.58;;;1.70;;
73919;SDS011;62266;53.348;-1.496;2023-08-24T14:51:52;3.63;;;1.70;;
73919;SDS011;62266;53.348;-1.496;2023-08-24T14:54:36;3.33;;;2.00;;
73919;SDS011;62266;53.348;-1.496;2023-08-24T14:57:20;5.33;;;2.10;;
73919;SDS011;62266;53.348;-1.496;2023-08-24T15:00:04;4.55;;;2.08;;
73919;SDS011;62266;53.348;-1.496;2023-08-24T15:02:49;2.95;;;1.73;;
73919;SDS011;62266;53.348;-1.496;2023-08-24T15:05:37;2.47;;;1.60;;
73919;SDS011;62266;53.348;-1.496;2023-08-24T15:08:22;2.60;;;1.80;;
73919;SDS011;62266;53.348;-1.496;2023-08-24T15:11:07;4.33;;;1.47;;
73919;SDS011;62266;53.348;-1.496;2023-08-24T15:13:52;3.90;;;2.00;;
73919;SDS011;62266;53.348;-1.496;2023-08-24T15:16:37;3.20;;;1.83;;
73919;SDS011;62266;53.348;-1.496;2023-08-24T15:19:21;5.90;;;1.80;;
73919;SDS011;62266;53.348;-1.496;2023-08-24T15:22:05;4.05;;;1.98;;
73919;SDS011;62266;53.348;-1.496;2023-08-24T15:24:50;3.73;;;1.70;;
73919;SDS011;62266;53.348;-1.496;2023-08-24T15:27:33;2.70;;;1.83;;
73919;SDS011;62266;53.348;-1.496;2023-08-24T15:30:18;3.38;;;1.73;;
73919;SDS011;62266;53.348;-1.496;2023-08-24T15:33:02;5.65;;;1.65;;
73919;SDS011;62266;53.348;-1.496;2023-08-24T15:35:47;3.42;;;1.63;;
73919;SDS011;62266;53.348;-1.496;2023-08-24T15:38:31;4.10;;;1.80;;
73919;SDS011;62266;53.348;-1.496;2023-08-24T15:41:17;2.92;;;1.50;;
73919;SDS011;62266;53.348;-1.496;2023-08-24T15:44:01;5.35;;;1.80;;
73919;SDS011;62266;53.348;-1.496;2023-08-24T15:46:45;2.95;;;1.42;;
73919;SDS011;62266;53.348;-1.496;2023-08-24T15:49:29;2.55;;;1.40;;
73919;SDS011;62266;53.348;-1.496;2023-08-24T15:52:13;2.93;;;1.60;;
73919;SDS011;62266;53.348;-1.496;2023-08-24T15:54:57;3.20;;;1.50;;
73919;SDS011;62266;53.348;-1.496;2023-08-24T15:57:41;4.97;;;1.70;;
73919;SDS011;62266;53.348;-1.496;2023-08-24T16:00:25;5.13;;;1.60;;
73919;SDS011;62266;53.348;-1.496;2023-08-24T16:03:09;2.92;;;1.65;;
73919;SDS011;62266;53.348;-1.496;2023-08-24T16:05:56;2.83;;;1.70;;
73919;SDS011;62266;53.348;-1.496;2023-08-24T16:08:41;6.03;;;1.80;;
73919;SDS011;62266;53.348;-1.496;2023-08-24T16:11:26;2.95;;;1.40;;
73919;SDS011;62266;53.348;-1.496;2023-08-24T16:14:09;3.20;;;1.50;;
73919;SDS011;62266;53.348;-1.496;2023-08-24T16:16:55;3.35;;;1.65;;
73919;SDS011;62266;53.348;-1.496;2023-08-24T16:19:38;4.37;;;1.70;;
73919;SDS011;62266;53.348;-1.496;2023-08-24T16:22:22;3.45;;;1.50;;
73919;SDS011;62266;53.348;-1.496;2023-08-24T16:25:07;4.35;;;1.73;;
73919;SDS011;62266;53.348;-1.496;2023-08-24T16:27:52;2.95;;;1.50;;
73919;SDS011;62266;53.348;-1.496;2023-08-24T16:30:36;2.50;;;1.40;;
73919;SDS011;62266;53.348;-1.496;2023-08-24T16:33:20;4.47;;;1.37;;
73919;SDS011;62266;53.348;-1.496;2023-08-24T16:36:04;4.15;;;1.23;;
73919;SDS011;62266;53.348;-1.496;2023-08-24T16:38:49;3.78;;;1.60;;
73919;SDS011;62266;53.348;-1.496;2023-08-24T16:41:33;3.22;;;1.50;;
73919;SDS011;62266;53.348;-1.496;2023-08-24T16:44:17;2.05;;;1.00;;
73919;SDS011;62266;53.348;-1.496;2023-08-24T16:47:01;2.80;;;0.73;;
73919;SDS011;62266;53.348;-1.496;2023-08-24T16:49:46;4.72;;;0.98;;
73919;SDS011;62266;53.348;-1.496;2023-08-24T16:52:31;4.95;;;1.08;;
73919;SDS011;62266;53.348;-1.496;2023-08-24T16:55:15;2.08;;;0.90;;
73919;SDS011;62266;53.348;-1.496;2023-08-24T16:58:00;6.20;;;1.30;;
73919;SDS011;62266;53.348;-1.496;2023-08-24T17:00:44;4.07;;;1.10;;
73919;SDS011;62266;53.348;-1.496;2023-08-24T17:03:29;2.35;;;1.10;;
73919;SDS011;62266;53.348;-1.496;2023-08-24T17:06:13;2.38;;;1.10;;
73919;SDS011;62266;53.348;-1.496;2023-08-24T17:08:57;3.17;;;1.48;;